createdAt,value
2019-03-16T00:00:53.753Z,58.50
2019-03-16T00:03:25.324Z,61.60
2019-03-16T00:05:56.611Z,62.20
2019-03-16T00:08:27.671Z,56.88
2019-03-16T00:10:59.439Z,65.92
2019-03-16T00:13:31.148Z,64.45
2019-03-16T00:16:02.852Z,66.35
2019-03-16T00:18:34.109Z,58.98
2019-03-16T00:21:05.727Z,58.65
2019-03-16T00:23:36.923Z,63.23
2019-03-16T00:26:09.182Z,68.70
2019-03-16T00:28:40.316Z,67.70
2019-03-16T00:31:11.493Z,74.40
2019-03-16T00:33:42.941Z,66.65
2019-03-16T00:36:14.617Z,61.92
2019-03-16T00:38:45.737Z,71.50
2019-03-16T00:41:17.366Z,71.17
2019-03-16T00:43:48.457Z,72.62
2019-03-16T00:46:19.575Z,69.12
2019-03-16T00:48:51.047Z,83.10
2019-03-16T00:51:22.321Z,83.92
2019-03-16T00:53:53.469Z,85.03
2019-03-16T00:56:24.912Z,77.90
2019-03-16T00:58:55.978Z,84.00
2019-03-16T01:01:28.065Z,83.42
2019-03-16T01:04:00.844Z,84.20
2019-03-16T01:06:33.197Z,86.67
2019-03-16T01:09:07.285Z,98.45
2019-03-16T01:11:38.532Z,102.07
2019-03-16T01:14:09.770Z,103.87
2019-03-16T01:16:40.964Z,119.28
2019-03-16T01:19:12.318Z,100.82
2019-03-16T01:21:43.678Z,96.80
2019-03-16T01:24:15.262Z,98.22
2019-03-16T01:26:46.456Z,108.65
2019-03-16T01:29:17.537Z,104.43
2019-03-16T01:31:48.624Z,95.83
2019-03-16T01:34:19.991Z,98.55
2019-03-16T01:36:51.942Z,93.95
2019-03-16T01:39:23.318Z,104.07
2019-03-16T01:41:54.541Z,92.50
2019-03-16T01:44:37.077Z,102.78
2019-03-16T01:47:09.474Z,102.40
2019-03-16T01:49:40.775Z,93.78
2019-03-16T01:52:11.913Z,115.20
2019-03-16T01:54:44.078Z,99.62
2019-03-16T01:57:15.315Z,103.07
2019-03-16T01:59:47.072Z,100.25
2019-03-16T02:02:18.307Z,94.55
2019-03-16T02:04:49.573Z,105.35
2019-03-16T02:07:20.670Z,109.48
2019-03-16T02:09:51.649Z,117.97
2019-03-16T02:12:23.481Z,145.02
2019-03-16T02:14:54.780Z,163.77
2019-03-16T02:17:26.189Z,137.22
2019-03-16T02:19:57.466Z,92.47
2019-03-16T02:22:28.559Z,104.75
2019-03-16T02:24:59.947Z,108.10
2019-03-16T02:27:31.310Z,98.00
2019-03-16T02:30:03.820Z,107.00
2019-03-16T02:32:35.295Z,116.33
2019-03-16T02:35:07.307Z,115.57
2019-03-16T02:37:38.629Z,96.72
2019-03-16T02:40:10.109Z,106.83
2019-03-16T02:42:42.096Z,102.65
2019-03-16T02:45:13.317Z,102.32
2019-03-16T02:47:44.583Z,114.05
2019-03-16T02:50:26.919Z,115.30
2019-03-16T02:52:58.278Z,123.18
2019-03-16T02:55:29.656Z,119.53
2019-03-16T02:58:00.827Z,98.37
2019-03-16T03:00:31.931Z,103.02
2019-03-16T03:03:03.301Z,99.70
2019-03-16T03:05:34.351Z,98.10
2019-03-16T03:08:05.631Z,103.62
2019-03-16T03:10:36.675Z,114.80
2019-03-16T03:13:07.750Z,116.73
2019-03-16T03:15:39.822Z,116.82
2019-03-16T03:18:11.383Z,125.47
2019-03-16T03:20:42.670Z,133.32
2019-03-16T03:23:14.881Z,168.87
2019-03-16T03:25:45.993Z,121.30
2019-03-16T03:28:17.265Z,131.97
2019-03-16T03:30:48.424Z,122.90
2019-03-16T03:33:19.676Z,116.33
2019-03-16T03:35:50.691Z,121.77
2019-03-16T03:38:22.367Z,118.95
2019-03-16T03:40:53.502Z,128.00
2019-03-16T03:43:24.847Z,134.10
2019-03-16T03:45:55.864Z,117.90
2019-03-16T03:48:28.112Z,142.65
2019-03-16T03:50:59.246Z,113.45
2019-03-16T03:53:30.417Z,99.07
2019-03-16T03:56:01.490Z,104.07
2019-03-16T03:58:32.922Z,123.75
2019-03-16T04:01:04.124Z,112.37
2019-03-16T04:03:36.895Z,123.97
2019-03-16T04:06:07.947Z,104.50
2019-03-16T04:08:39.385Z,120.00
2019-03-16T04:11:10.572Z,125.62
2019-03-16T04:13:42.491Z,134.95
2019-03-16T04:16:13.453Z,119.45
2019-03-16T04:18:44.802Z,215.52
2019-03-16T04:21:16.185Z,228.60
2019-03-16T04:23:47.429Z,196.78
2019-03-16T04:26:18.731Z,153.55
2019-03-16T04:28:49.905Z,147.43
2019-03-16T04:31:20.895Z,144.68
2019-03-16T04:33:52.090Z,125.07
2019-03-16T04:36:23.252Z,111.70
2019-03-16T04:38:54.415Z,107.35
2019-03-16T04:41:25.488Z,103.27
2019-03-16T04:43:56.945Z,118.65
2019-03-16T04:46:31.233Z,139.77
2019-03-16T04:49:01.171Z,140.40
2019-03-16T04:51:32.437Z,148.75
2019-03-16T04:54:03.806Z,140.55
2019-03-16T04:56:36.120Z,116.28
2019-03-16T04:59:07.455Z,93.05
2019-03-16T05:01:38.599Z,83.42
2019-03-16T05:04:09.747Z,81.67
2019-03-16T05:06:40.837Z,99.40
2019-03-16T05:09:12.165Z,106.27
2019-03-16T05:11:43.348Z,106.97
2019-03-16T05:14:14.586Z,114.45
2019-03-16T05:16:46.178Z,111.85
2019-03-16T05:19:17.569Z,115.62
2019-03-16T05:21:48.798Z,139.62
2019-03-16T05:24:20.122Z,121.35
2019-03-16T05:26:51.162Z,156.72
2019-03-16T05:29:22.204Z,134.07
2019-03-16T05:31:53.229Z,114.62
2019-03-16T05:34:24.468Z,109.00
2019-03-16T05:36:56.201Z,97.35
2019-03-16T05:39:27.961Z,84.28
2019-03-16T05:41:59.062Z,81.20
2019-03-16T05:44:30.559Z,70.72
2019-03-16T05:47:01.883Z,70.87
2019-03-16T05:49:33.148Z,69.27
2019-03-16T05:52:05.547Z,71.95
2019-03-16T05:54:37.177Z,71.47
2019-03-16T05:57:08.753Z,73.33
2019-03-16T05:59:41.235Z,60.87
2019-03-16T06:02:12.854Z,69.33
2019-03-16T06:04:44.035Z,64.80
2019-03-16T06:07:15.557Z,76.13
2019-03-16T06:09:47.058Z,75.03
2019-03-16T06:12:19.597Z,67.53
2019-03-16T06:14:50.922Z,74.90
2019-03-16T06:17:22.021Z,76.97
2019-03-16T06:19:53.531Z,81.63
2019-03-16T06:22:25.128Z,92.63
2019-03-16T06:24:56.807Z,129.97
2019-03-16T06:27:28.755Z,142.13
2019-03-16T06:30:00.339Z,121.07
2019-03-16T06:32:32.517Z,94.83
2019-03-16T06:35:03.859Z,108.23
2019-03-16T06:37:45.913Z,105.80
2019-03-16T06:40:18.362Z,114.03
2019-03-16T06:42:49.992Z,101.00
2019-03-16T06:45:21.573Z,83.90
2019-03-16T06:47:54.797Z,78.17
2019-03-16T06:50:26.103Z,74.90
2019-03-16T06:52:57.123Z,76.73
2019-03-16T06:55:29.597Z,81.37
2019-03-16T06:58:00.941Z,77.97
2019-03-16T07:00:32.285Z,75.53
2019-03-16T07:03:03.918Z,70.27
2019-03-16T07:05:38.686Z,74.53
2019-03-16T07:08:08.839Z,68.83
2019-03-16T07:10:40.302Z,70.77
2019-03-16T07:13:11.726Z,58.77
2019-03-16T07:15:43.162Z,58.87
2019-03-16T07:18:14.400Z,60.97
2019-03-16T07:20:45.915Z,68.50
2019-03-16T07:23:17.420Z,58.23
2019-03-16T07:25:48.907Z,59.90
2019-03-16T07:28:20.350Z,56.03
2019-03-16T07:30:53.029Z,53.90
2019-03-16T07:33:24.547Z,51.50
2019-03-16T07:35:56.130Z,54.60
2019-03-16T07:38:27.536Z,59.93
2019-03-16T07:40:59.019Z,63.10
2019-03-16T07:43:30.214Z,54.03
2019-03-16T07:46:01.675Z,59.17
2019-03-16T07:48:33.053Z,49.87
2019-03-16T07:51:04.901Z,48.77
2019-03-16T07:53:36.071Z,55.60
2019-03-16T07:56:07.657Z,43.70
2019-03-16T07:58:38.849Z,55.70
2019-03-16T08:01:10.619Z,54.63
2019-03-16T08:03:41.918Z,37.53
2019-03-16T08:06:14.080Z,45.20
2019-03-16T08:08:46.337Z,49.50
2019-03-16T08:11:18.720Z,62.67
2019-03-16T08:13:50.112Z,53.33
2019-03-16T08:16:21.276Z,49.47
2019-03-16T08:18:52.518Z,52.33
2019-03-16T08:21:23.878Z,32.13
2019-03-16T08:23:55.077Z,31.40
2019-03-16T08:26:26.624Z,26.27
2019-03-16T08:28:59.694Z,30.97
2019-03-16T08:31:31.120Z,30.00
2019-03-16T08:34:03.480Z,25.77
2019-03-16T08:36:34.851Z,27.63
2019-03-16T08:39:08.338Z,27.93
2019-03-16T08:41:39.565Z,22.83
2019-03-16T08:44:11.009Z,21.57
2019-03-16T08:46:43.377Z,22.67
2019-03-16T08:49:14.899Z,23.20
2019-03-16T08:51:46.221Z,24.83
2019-03-16T08:54:17.850Z,24.70
2019-03-16T08:56:49.462Z,24.20
2019-03-16T08:59:24.464Z,28.97
2019-03-16T09:01:56.504Z,21.53
2019-03-16T09:04:27.843Z,31.97
2019-03-16T09:06:59.289Z,25.50
2019-03-16T09:09:30.866Z,24.83
2019-03-16T09:12:02.987Z,20.13
2019-03-16T09:14:34.383Z,24.20
2019-03-16T09:17:08.761Z,20.80
2019-03-16T09:19:38.756Z,20.60
2019-03-16T09:22:10.420Z,17.13
2019-03-16T09:24:41.802Z,17.00
2019-03-16T09:27:15.835Z,22.97
2019-03-16T09:30:06.368Z,15.87
2019-03-16T09:32:37.630Z,17.00
2019-03-16T09:35:09.141Z,14.47
2019-03-16T09:37:40.575Z,16.57
2019-03-16T09:40:11.899Z,18.87
2019-03-16T09:42:43.288Z,16.17
2019-03-16T09:45:14.689Z,21.90
2019-03-16T09:47:46.107Z,20.90
2019-03-16T09:50:17.361Z,20.93
2019-03-16T09:52:49.598Z,22.53
2019-03-16T09:55:21.073Z,21.03
2019-03-16T09:57:52.248Z,18.87
2019-03-16T10:00:23.506Z,15.20
2019-03-16T10:02:55.248Z,14.63
2019-03-16T10:05:26.359Z,15.80
2019-03-16T10:07:57.890Z,17.47
2019-03-16T10:10:29.047Z,28.97
2019-03-16T10:13:00.773Z,22.57
2019-03-16T10:15:32.062Z,18.67
2019-03-16T10:18:03.617Z,19.10
2019-03-16T10:20:34.983Z,26.80
2019-03-16T10:23:06.569Z,16.80
2019-03-16T10:25:38.035Z,16.57
2019-03-16T10:28:10.374Z,19.10
2019-03-16T10:30:47.817Z,16.87
2019-03-16T10:33:19.895Z,22.47
2019-03-16T10:35:51.194Z,31.43
2019-03-16T10:38:23.432Z,31.93
2019-03-16T10:40:56.378Z,31.17
2019-03-16T10:43:27.813Z,23.17
2019-03-16T10:45:59.144Z,22.57
2019-03-16T10:48:34.783Z,18.80
2019-03-16T10:51:06.001Z,18.53
2019-03-16T10:53:37.629Z,15.20
2019-03-16T10:56:08.821Z,22.77
2019-03-16T10:58:40.384Z,15.80
2019-03-16T11:01:11.786Z,13.50
2019-03-16T11:03:44.059Z,12.97
2019-03-16T11:06:15.210Z,17.93
2019-03-16T11:08:46.811Z,17.17
2019-03-16T11:11:18.168Z,25.87
2019-03-16T11:13:49.958Z,14.37
2019-03-16T11:16:21.264Z,22.60
2019-03-16T11:18:52.661Z,19.63
2019-03-16T11:21:24.077Z,21.43
2019-03-16T11:23:55.552Z,19.10
2019-03-16T11:26:26.815Z,20.67
2019-03-16T11:29:08.447Z,24.20
2019-03-16T11:31:30.992Z,20.13
2019-03-16T11:34:03.162Z,14.87
2019-03-16T11:36:34.520Z,14.23
2019-03-16T11:39:08.290Z,31.43
2019-03-16T11:41:40.217Z,26.50
2019-03-16T11:44:11.933Z,19.03
2019-03-16T11:46:44.142Z,20.60
2019-03-16T11:49:16.367Z,22.53
2019-03-16T11:51:47.776Z,16.37
2019-03-16T11:54:30.642Z,12.10
2019-03-16T11:57:02.058Z,16.73
2019-03-16T11:59:33.579Z,12.03
2019-03-16T12:02:05.770Z,11.77
2019-03-16T12:04:37.544Z,9.80
2019-03-16T12:07:09.010Z,13.40
2019-03-16T12:09:40.275Z,12.57
2019-03-16T12:12:11.763Z,14.50
2019-03-16T12:14:43.113Z,13.13
2019-03-16T12:17:14.481Z,9.87
2019-03-16T12:19:46.117Z,15.33
2019-03-16T12:22:18.532Z,10.33
2019-03-16T12:24:50.859Z,16.80
2019-03-16T12:27:22.168Z,19.33
2019-03-16T12:29:53.860Z,15.70
2019-03-16T12:32:26.415Z,11.70
2019-03-16T12:34:57.889Z,16.27
2019-03-16T12:37:31.780Z,10.43
2019-03-16T12:40:03.805Z,17.17
2019-03-16T12:42:48.026Z,11.43
2019-03-16T12:45:20.840Z,11.77
2019-03-16T12:47:52.540Z,10.10
2019-03-16T12:50:23.869Z,9.73
2019-03-16T12:52:55.230Z,10.27
2019-03-16T12:55:26.424Z,11.00
2019-03-16T12:57:58.095Z,12.87
2019-03-16T13:00:29.331Z,9.37
2019-03-16T13:03:00.740Z,10.20
2019-03-16T13:05:32.380Z,13.37
2019-03-16T13:08:03.611Z,11.73
2019-03-16T13:10:34.746Z,10.40
2019-03-16T13:13:06.592Z,12.10
2019-03-16T13:15:38.389Z,12.43
2019-03-16T13:18:10.109Z,12.40
2019-03-16T13:20:41.424Z,12.43
2019-03-16T13:23:12.792Z,13.93
2019-03-16T13:25:44.236Z,8.77
2019-03-16T13:28:15.558Z,10.80
2019-03-16T13:30:47.655Z,13.33
2019-03-16T13:33:18.913Z,9.53
2019-03-16T13:35:50.166Z,13.43
2019-03-16T13:38:21.408Z,9.23
2019-03-16T13:40:52.665Z,9.27
2019-03-16T13:43:24.286Z,10.77
2019-03-16T13:45:57.048Z,13.90
2019-03-16T13:48:29.695Z,12.50
2019-03-16T13:51:01.293Z,13.93
2019-03-16T13:53:32.755Z,12.10
2019-03-16T13:56:05.972Z,12.80
2019-03-16T13:58:40.644Z,12.10
2019-03-16T14:01:11.477Z,10.33
2019-03-16T14:03:42.675Z,14.37
2019-03-16T14:06:15.313Z,15.97
2019-03-16T14:08:46.303Z,20.67
2019-03-16T14:11:18.023Z,13.03
2019-03-16T14:13:49.415Z,13.03
2019-03-16T14:16:21.305Z,12.60
2019-03-16T14:18:52.465Z,10.80
2019-03-16T14:21:25.382Z,10.77
2019-03-16T14:23:56.896Z,8.33
2019-03-16T14:27:03.780Z,12.53
2019-03-16T14:29:35.153Z,10.87
2019-03-16T14:32:06.675Z,9.10
2019-03-16T14:34:37.934Z,10.17
2019-03-16T14:37:09.361Z,9.63
2019-03-16T14:39:40.839Z,10.77
2019-03-16T14:42:12.564Z,8.77
2019-03-16T14:44:43.919Z,9.93
2019-03-16T14:47:15.917Z,13.67
2019-03-16T14:49:47.345Z,9.63
2019-03-16T14:52:18.850Z,10.23
2019-03-16T14:54:50.607Z,14.23
2019-03-16T14:57:22.493Z,10.07
2019-03-16T14:59:53.993Z,11.37
2019-03-16T15:02:26.833Z,13.67
2019-03-16T15:05:00.391Z,14.57
2019-03-16T15:07:32.193Z,14.13
2019-03-16T15:10:04.010Z,13.23
2019-03-16T15:12:35.297Z,15.00
2019-03-16T15:15:08.984Z,16.83
2019-03-16T15:17:41.529Z,15.70
2019-03-16T15:20:15.432Z,12.70
2019-03-16T15:22:46.834Z,14.97
2019-03-16T15:25:18.493Z,10.90
2019-03-16T15:27:49.825Z,12.90
2019-03-16T15:30:22.448Z,13.33
2019-03-16T15:32:53.955Z,17.83
2019-03-16T15:35:25.165Z,12.93
2019-03-16T15:37:56.530Z,16.67
2019-03-16T15:40:27.905Z,13.07
2019-03-16T15:42:59.544Z,23.20
2019-03-16T15:45:31.141Z,22.30
2019-03-16T15:48:02.225Z,21.67
2019-03-16T15:50:33.639Z,24.13
2019-03-16T15:53:04.887Z,22.60
2019-03-16T15:55:36.259Z,24.53
2019-03-16T15:58:08.693Z,24.80
2019-03-16T16:00:41.334Z,33.93
2019-03-16T16:03:12.686Z,31.30
2019-03-16T16:05:43.941Z,27.40
2019-03-16T16:08:15.246Z,39.63
2019-03-16T16:10:59.690Z,29.40
2019-03-16T16:13:19.546Z,27.70
2019-03-16T16:15:50.745Z,31.93
2019-03-16T16:18:22.160Z,28.27
2019-03-16T16:20:54.656Z,32.43
2019-03-16T16:23:25.907Z,36.00
2019-03-16T16:25:57.472Z,46.57
2019-03-16T16:28:28.892Z,35.10
2019-03-16T16:31:00.547Z,34.30
2019-03-16T16:33:32.857Z,31.00
2019-03-16T16:36:04.542Z,36.57
2019-03-16T16:38:35.861Z,36.43
2019-03-16T16:41:07.335Z,34.17
2019-03-16T16:43:38.769Z,35.03
2019-03-16T16:46:10.725Z,42.17
2019-03-16T16:48:42.256Z,57.23
2019-03-16T16:51:13.862Z,48.40
2019-03-16T16:53:45.212Z,46.80
2019-03-16T16:56:16.675Z,50.07
2019-03-16T16:58:47.855Z,37.63
2019-03-16T17:01:28.888Z,40.03
2019-03-16T17:03:53.318Z,34.93
2019-03-16T17:06:24.695Z,30.73
2019-03-16T17:08:55.980Z,25.70
2019-03-16T17:11:28.504Z,27.37
2019-03-16T17:13:59.821Z,25.20
2019-03-16T17:16:31.041Z,25.63
2019-03-16T17:19:02.304Z,34.10
2019-03-16T17:21:34.521Z,35.93
2019-03-16T17:24:05.955Z,27.30
2019-03-16T17:26:38.190Z,27.63
2019-03-16T17:29:10.309Z,27.50
2019-03-16T17:31:42.650Z,27.20
2019-03-16T17:34:14.317Z,26.37
2019-03-16T17:36:45.885Z,26.03
2019-03-16T17:39:17.363Z,28.27
2019-03-16T17:41:48.718Z,28.73
2019-03-16T17:44:19.940Z,26.70
2019-03-16T17:46:51.109Z,31.47
2019-03-16T17:49:22.566Z,30.67
2019-03-16T17:51:53.972Z,23.57
2019-03-16T17:54:25.154Z,31.90
2019-03-16T17:56:57.220Z,23.63
2019-03-16T17:59:28.745Z,25.53
2019-03-16T18:02:00.114Z,26.70
2019-03-16T18:04:31.411Z,25.53
2019-03-16T18:07:03.053Z,28.47
2019-03-16T18:09:34.249Z,29.73
2019-03-16T18:12:05.559Z,35.70
2019-03-16T18:14:36.804Z,29.53
2019-03-16T18:17:08.270Z,32.53
2019-03-16T18:19:39.474Z,34.87
2019-03-16T18:22:10.734Z,29.13
2019-03-16T18:24:44.445Z,32.20
2019-03-16T18:27:16.788Z,31.17
2019-03-16T18:29:48.231Z,28.13
2019-03-16T18:32:19.860Z,28.73
2019-03-16T18:34:52.047Z,28.13
2019-03-16T18:37:23.441Z,27.13
2019-03-16T18:40:17.232Z,27.83
2019-03-16T18:42:49.418Z,28.80
2019-03-16T18:45:21.601Z,26.80
2019-03-16T18:47:53.185Z,24.67
2019-03-16T18:50:24.812Z,24.73
2019-03-16T18:52:56.093Z,23.47
2019-03-16T18:55:28.418Z,17.10
2019-03-16T18:58:01.126Z,15.47
2019-03-16T19:00:32.626Z,18.37
2019-03-16T19:03:04.494Z,18.80
2019-03-16T19:05:35.825Z,17.73
2019-03-16T19:08:07.829Z,17.80
2019-03-16T19:10:39.381Z,17.63
2019-03-16T19:13:10.816Z,15.40
2019-03-16T19:15:42.381Z,20.47
2019-03-16T19:18:13.880Z,18.33
2019-03-16T19:20:45.279Z,15.13
2019-03-16T19:23:17.308Z,13.07
2019-03-16T19:25:48.748Z,14.53
2019-03-16T19:28:20.198Z,16.60
2019-03-16T19:30:51.569Z,14.60
2019-03-16T19:33:22.703Z,13.70
2019-03-16T19:35:54.306Z,12.77
2019-03-16T19:38:25.823Z,10.60
2019-03-16T19:40:57.091Z,9.20
2019-03-16T19:43:28.403Z,12.53
2019-03-16T19:46:00.707Z,10.40
2019-03-16T19:48:32.571Z,13.17
2019-03-16T19:51:04.480Z,13.20
2019-03-16T19:53:35.877Z,10.87
2019-03-16T19:56:08.810Z,12.47
2019-03-16T19:58:40.625Z,11.63
2019-03-16T20:01:12.041Z,14.27
2019-03-16T20:03:43.277Z,12.00
2019-03-16T20:06:25.132Z,13.20
2019-03-16T20:08:47.814Z,10.93
2019-03-16T20:11:19.133Z,10.50
2019-03-16T20:13:50.690Z,16.03
2019-03-16T20:16:22.853Z,19.37
2019-03-16T20:18:54.144Z,22.33
2019-03-16T20:21:25.304Z,19.63
2019-03-16T20:23:56.621Z,16.20
2019-03-16T20:26:29.064Z,17.87
2019-03-16T20:29:00.430Z,25.90
2019-03-16T20:31:31.646Z,19.07
2019-03-16T20:34:04.166Z,16.50
2019-03-16T20:36:35.762Z,15.27
2019-03-16T20:39:18.649Z,17.57
2019-03-16T20:41:49.747Z,17.97
2019-03-16T20:44:21.157Z,14.30
2019-03-16T20:46:52.717Z,16.17
2019-03-16T20:49:23.990Z,15.83
2019-03-16T20:51:55.541Z,16.43
2019-03-16T20:54:26.948Z,18.83
2019-03-16T20:56:58.169Z,22.77
2019-03-16T20:59:29.540Z,24.93
2019-03-16T21:02:00.980Z,21.77
2019-03-16T21:04:33.315Z,19.27
2019-03-16T21:07:04.695Z,21.43
2019-03-16T21:09:36.080Z,17.77
2019-03-16T21:12:07.524Z,16.43
2019-03-16T21:14:38.707Z,19.10
2019-03-16T21:17:10.278Z,15.37
2019-03-16T21:19:41.638Z,13.03
2019-03-16T21:22:13.620Z,14.77
2019-03-16T21:24:45.080Z,12.37
2019-03-16T21:27:16.695Z,21.00
2019-03-16T21:29:49.372Z,22.70
2019-03-16T21:32:20.813Z,23.67
2019-03-16T21:34:52.016Z,21.00
2019-03-16T21:37:23.316Z,19.70
2019-03-16T21:39:54.604Z,19.53
2019-03-16T21:42:26.053Z,16.33
2019-03-16T21:44:58.516Z,17.13
2019-03-16T21:47:29.946Z,19.20
2019-03-16T21:50:01.493Z,19.53
2019-03-16T21:52:32.961Z,21.00
2019-03-16T21:55:04.456Z,17.03
2019-03-16T21:57:36.871Z,18.20
2019-03-16T22:00:10.197Z,19.33
2019-03-16T22:02:41.697Z,16.43
2019-03-16T22:05:14.334Z,15.57
2019-03-16T22:07:45.902Z,16.83
2019-03-16T22:10:17.322Z,16.70
2019-03-16T22:12:48.542Z,21.07
2019-03-16T22:15:20.078Z,20.27
2019-03-16T22:17:51.585Z,17.90
2019-03-16T22:20:23.260Z,15.53
2019-03-16T22:22:54.786Z,14.67
2019-03-16T22:25:26.055Z,14.53
2019-03-16T22:27:58.096Z,14.13
2019-03-16T22:30:29.305Z,17.47
2019-03-16T22:33:00.651Z,20.37
2019-03-16T22:35:32.215Z,17.53
2019-03-16T22:38:03.643Z,19.40
2019-03-16T22:40:35.097Z,17.83
2019-03-16T22:43:06.561Z,16.00
2019-03-16T22:45:38.396Z,17.57
2019-03-16T22:48:11.123Z,18.27
2019-03-16T22:50:43.069Z,18.33
2019-03-16T22:53:14.613Z,15.80
2019-03-16T22:55:45.966Z,15.87
2019-03-16T22:58:17.500Z,24.53
2019-03-16T23:00:50.688Z,18.20
2019-03-16T23:03:22.196Z,15.23
2019-03-16T23:05:53.644Z,12.23
2019-03-16T23:08:24.848Z,12.80
2019-03-16T23:10:56.728Z,12.20
2019-03-16T23:13:28.007Z,17.93
2019-03-16T23:15:59.212Z,19.73
2019-03-16T23:18:30.607Z,19.70
2019-03-16T23:21:01.774Z,18.87
2019-03-16T23:23:33.021Z,17.07
2019-03-16T23:26:04.748Z,15.27
2019-03-16T23:28:37.124Z,16.03
2019-03-16T23:31:08.643Z,12.23
2019-03-16T23:33:40.362Z,12.23
2019-03-16T23:36:12.264Z,10.37
2019-03-16T23:38:43.458Z,12.17
2019-03-16T23:41:15.264Z,13.07
2019-03-16T23:43:46.692Z,12.33
2019-03-16T23:46:29.742Z,11.00
2019-03-16T23:49:02.291Z,15.33
2019-03-16T23:51:34.145Z,13.90
2019-03-16T23:54:05.606Z,12.17
2019-03-16T23:56:36.988Z,13.50
2019-03-16T23:59:08.392Z,15.13
